Terminal Aerodrome Forecast
Issued by NWS

Home | Current Version | Previous Version | Text Only | Print | Product List | Glossary On
Versions: 1 2 3 4 5 6 7 8 9 10 11 12 13
000
FTUS43 KSGF 111727
TAFBBG
TAF
KBBG 111727Z 1118/1218 27010G18KT P6SM BKN250
     FM112300 30012G23KT P6SM BKN250
     FM120200 32012KT P6SM BKN250 WS020/32040KT
     FM120700 33010KT P6SM BKN035
     FM121400 30010KT P6SM SCT035=

USA.gov is the U.S. government's official web portal to all federal, state and local government web resources and services.